sensor_id;sensor_type;location;lat;lon;timestamp;pressure;altitude;pressure_sealevel;temperature;humidity
30516;BME280;17297;54.022;10.760;2024-01-30T00:01:53;102718.03;;;7.97;58.99
30516;BME280;17297;54.022;10.760;2024-01-30T00:04:18;102715.50;;;7.96;59.01
30516;BME280;17297;54.022;10.760;2024-01-30T00:06:44;102717.44;;;7.94;59.04
30516;BME280;17297;54.022;10.760;2024-01-30T00:09:10;102718.28;;;7.94;59.20
30516;BME280;17297;54.022;10.760;2024-01-30T00:11:36;102719.41;;;7.92;59.29
30516;BME280;17297;54.022;10.760;2024-01-30T00:14:02;102720.53;;;7.89;59.13
30516;BME280;17297;54.022;10.760;2024-01-30T00:16:28;102721.63;;;7.86;59.20
30516;BME280;17297;54.022;10.760;2024-01-30T00:18:54;102715.66;;;7.83;59.17
30516;BME280;17297;54.022;10.760;2024-01-30T00:21:20;102722.13;;;7.80;59.13
30516;BME280;17297;54.022;10.760;2024-01-30T00:23:45;102723.22;;;7.78;59.17
30516;BME280;17297;54.022;10.760;2024-01-30T00:26:11;102723.47;;;7.75;59.21
30516;BME280;17297;54.022;10.760;2024-01-30T00:28:39;102722.63;;;7.74;59.26
30516;BME280;17297;54.022;10.760;2024-01-30T00:31:05;102722.53;;;7.76;59.13
30516;BME280;17297;54.022;10.760;2024-01-30T00:33:30;102718.00;;;7.76;59.16
30516;BME280;17297;54.022;10.760;2024-01-30T00:35:56;102720.53;;;7.78;59.19
30516;BME280;17297;54.022;10.760;2024-01-30T00:38:21;102726.63;;;7.80;59.37
30516;BME280;17297;54.022;10.760;2024-01-30T00:40:47;102716.78;;;7.80;59.32
30516;BME280;17297;54.022;10.760;2024-01-30T00:43:13;102715.78;;;7.81;59.26
30516;BME280;17297;54.022;10.760;2024-01-30T00:45:38;102721.88;;;7.83;59.38
30516;BME280;17297;54.022;10.760;2024-01-30T00:48:04;102719.94;;;7.85;59.28
30516;BME280;17297;54.022;10.760;2024-01-30T00:50:29;102716.25;;;7.86;59.27
30516;BME280;17297;54.022;10.760;2024-01-30T00:52:54;102701.88;;;7.87;59.31
30516;BME280;17297;54.022;10.760;2024-01-30T00:55:20;102703.44;;;7.90;59.38
30516;BME280;17297;54.022;10.760;2024-01-30T00:57:45;102703.09;;;7.95;59.58
30516;BME280;17297;54.022;10.760;2024-01-30T01:00:11;102696.84;;;7.94;59.47
30516;BME280;17297;54.022;10.760;2024-01-30T01:02:37;102701.94;;;7.97;59.46
30516;BME280;17297;54.022;10.760;2024-01-30T01:05:04;102701.69;;;8.00;59.63
30516;BME280;17297;54.022;10.760;2024-01-30T01:07:30;102705.97;;;8.03;59.47
30516;BME280;17297;54.022;10.760;2024-01-30T01:09:55;102709.38;;;8.05;59.50
30516;BME280;17297;54.022;10.760;2024-01-30T01:12:21;102709.22;;;8.06;59.49
30516;BME280;17297;54.022;10.760;2024-01-30T01:14:46;102715.31;;;8.08;59.68
30516;BME280;17297;54.022;10.760;2024-01-30T01:17:11;102710.69;;;8.10;59.68
30516;BME280;17297;54.022;10.760;2024-01-30T01:19:37;102705.19;;;8.12;59.60
30516;BME280;17297;54.022;10.760;2024-01-30T01:22:02;102716.63;;;8.14;59.72
30516;BME280;17297;54.022;10.760;2024-01-30T01:24:29;102715.66;;;8.15;59.79
30516;BME280;17297;54.022;10.760;2024-01-30T01:26:54;102703.81;;;8.18;59.70
30516;BME280;17297;54.022;10.760;2024-01-30T01:29:20;102707.22;;;8.20;59.71
30516;BME280;17297;54.022;10.760;2024-01-30T01:31:53;102702.47;;;8.23;59.79
30516;BME280;17297;54.022;10.760;2024-01-30T01:34:18;102702.19;;;8.26;59.95
30516;BME280;17297;54.022;10.760;2024-01-30T01:36:44;102696.69;;;8.28;59.96
30516;BME280;17297;54.022;10.760;2024-01-30T01:39:09;102696.44;;;8.31;59.71
30516;BME280;17297;54.022;10.760;2024-01-30T01:41:35;102696.31;;;8.32;60.01
30516;BME280;17297;54.022;10.760;2024-01-30T01:44:01;102695.22;;;8.35;59.76
30516;BME280;17297;54.022;10.760;2024-01-30T01:46:27;102695.06;;;8.37;59.91
30516;BME280;17297;54.022;10.760;2024-01-30T01:48:55;102694.97;;;8.38;59.94
30516;BME280;17297;54.022;10.760;2024-01-30T01:51:22;102691.16;;;8.41;60.11
30516;BME280;17297;54.022;10.760;2024-01-30T01:53:50;102694.56;;;8.43;60.13
30516;BME280;17297;54.022;10.760;2024-01-30T01:56:16;102688.94;;;8.46;60.05
30516;BME280;17297;54.022;10.760;2024-01-30T01:58:41;102695.88;;;8.48;60.07
30516;BME280;17297;54.022;10.760;2024-01-30T02:01:09;102695.75;;;8.50;60.23
30516;BME280;17297;54.022;10.760;2024-01-30T02:03:35;102695.63;;;8.51;60.18
30516;BME280;17297;54.022;10.760;2024-01-30T02:06:01;102695.34;;;8.54;60.05
30516;BME280;17297;54.022;10.760;2024-01-30T02:08:27;102694.38;;;8.55;60.13
30516;BME280;17297;54.022;10.760;2024-01-30T02:10:53;102689.00;;;8.55;59.88
30516;BME280;17297;54.022;10.760;2024-01-30T02:13:20;102684.63;;;8.54;59.98
30516;BME280;17297;54.022;10.760;2024-01-30T02:15:49;102690.94;;;8.53;60.10
30516;BME280;17297;54.022;10.760;2024-01-30T02:18:15;102686.72;;;8.51;59.92
30516;BME280;17297;54.022;10.760;2024-01-30T02:20:41;102688.09;;;8.45;59.83
30516;BME280;17297;54.022;10.760;2024-01-30T02:23:07;102689.47;;;8.40;59.75
30516;BME280;17297;54.022;10.760;2024-01-30T02:25:37;102690.69;;;8.36;59.83
30516;BME280;17297;54.022;10.760;2024-01-30T02:28:03;102691.06;;;8.31;60.01
30516;BME280;17297;54.022;10.760;2024-01-30T02:30:28;102686.97;;;8.27;60.04
30516;BME280;17297;54.022;10.760;2024-01-30T02:32:54;102676.50;;;8.24;59.91
30516;BME280;17297;54.022;10.760;2024-01-30T02:35:19;102671.25;;;8.22;60.07
30516;BME280;17297;54.022;10.760;2024-01-30T02:37:44;102665.31;;;8.19;60.04
30516;BME280;17297;54.022;10.760;2024-01-30T02:40:10;102663.75;;;8.16;60.25
30516;BME280;17297;54.022;10.760;2024-01-30T02:42:35;102657.50;;;8.16;60.33
30516;BME280;17297;54.022;10.760;2024-01-30T02:45:00;102657.50;;;8.16;60.23
30516;BME280;17297;54.022;10.760;2024-01-30T02:47:26;102647.66;;;8.16;60.31
30516;BME280;17297;54.022;10.760;2024-01-30T02:49:51;102647.66;;;8.16;60.23
30516;BME280;17297;54.022;10.760;2024-01-30T02:52:17;102650.22;;;8.18;60.27
30516;BME280;17297;54.022;10.760;2024-01-30T02:54:44;102647.53;;;8.18;60.45
30516;BME280;17297;54.022;10.760;2024-01-30T02:57:09;102644.00;;;8.17;60.37
30516;BME280;17297;54.022;10.760;2024-01-30T02:59:35;102648.38;;;8.18;60.41
30516;BME280;17297;54.022;10.760;2024-01-30T03:02:01;102651.03;;;8.18;60.27
30516;BME280;17297;54.022;10.760;2024-01-30T03:04:26;102645.69;;;8.18;60.30
30516;BME280;17297;54.022;10.760;2024-01-30T03:06:51;102641.31;;;8.17;60.41
30516;BME280;17297;54.022;10.760;2024-01-30T03:09:17;102642.31;;;8.16;60.30
30516;BME280;17297;54.022;10.760;2024-01-30T03:11:43;102638.75;;;8.16;60.29
30516;BME280;17297;54.022;10.760;2024-01-30T03:14:08;102643.53;;;8.12;60.29
30516;BME280;17297;54.022;10.760;2024-01-30T03:16:36;102639.41;;;8.08;60.16
30516;BME280;17297;54.022;10.760;2024-01-30T03:19:02;102636.84;;;8.06;60.38
30516;BME280;17297;54.022;10.760;2024-01-30T03:21:28;102636.16;;;8.04;60.16
30516;BME280;17297;54.022;10.760;2024-01-30T03:23:54;102631.91;;;8.02;60.38
30516;BME280;17297;54.022;10.760;2024-01-30T03:26:19;102635.69;;;7.99;60.31
30516;BME280;17297;54.022;10.760;2024-01-30T03:28:44;102633.00;;;7.99;60.51
30516;BME280;17297;54.022;10.760;2024-01-30T03:31:10;102632.16;;;7.99;60.46
30516;BME280;17297;54.022;10.760;2024-01-30T03:33:36;102631.31;;;7.98;60.34
30516;BME280;17297;54.022;10.760;2024-01-30T03:36:04;102629.47;;;7.99;60.42
30516;BME280;17297;54.022;10.760;2024-01-30T03:38:29;102625.94;;;7.98;60.32
30516;BME280;17297;54.022;10.760;2024-01-30T03:40:55;102625.22;;;7.96;60.54
30516;BME280;17297;54.022;10.760;2024-01-30T03:43:20;102623.66;;;7.94;60.35
30516;BME280;17297;54.022;10.760;2024-01-30T03:45:45;102616.59;;;7.93;60.32
30516;BME280;17297;54.022;10.760;2024-01-30T03:48:11;102617.69;;;7.90;60.61
30516;BME280;17297;54.022;10.760;2024-01-30T03:50:36;102613.19;;;7.91;60.38
30516;BME280;17297;54.022;10.760;2024-01-30T03:53:02;102609.66;;;7.90;60.69
30516;BME280;17297;54.022;10.760;2024-01-30T03:55:27;102600.91;;;7.88;60.41
30516;BME280;17297;54.022;10.760;2024-01-30T03:57:52;102603.72;;;7.86;60.37
30516;BME280;17297;54.022;10.760;2024-01-30T04:00:18;102599.34;;;7.85;60.46
30516;BME280;17297;54.022;10.760;2024-01-30T04:02:44;102599.34;;;7.85;60.49
30516;BME280;17297;54.022;10.760;2024-01-30T04:05:10;102602.28;;;7.82;60.43
30516;BME280;17297;54.022;10.760;2024-01-30T04:07:35;102600.72;;;7.80;60.55
30516;BME280;17297;54.022;10.760;2024-01-30T04:10:01;102603.50;;;7.78;60.47
30516;BME280;17297;54.022;10.760;2024-01-30T04:12:26;102608.16;;;7.76;60.40
30516;BME280;17297;54.022;10.760;2024-01-30T04:14:51;102598.66;;;7.72;60.36
30516;BME280;17297;54.022;10.760;2024-01-30T04:17:16;102604.16;;;7.71;60.34
30516;BME280;17297;54.022;10.760;2024-01-30T04:19:42;102609.78;;;7.68;60.33
30516;BME280;17297;54.022;10.760;2024-01-30T04:22:07;102607.34;;;7.64;60.30
30516;BME280;17297;54.022;10.760;2024-01-30T04:24:32;102600.56;;;7.60;60.33
30516;BME280;17297;54.022;10.760;2024-01-30T04:26:59;102606.19;;;7.57;60.10
30516;BME280;17297;54.022;10.760;2024-01-30T04:29:24;102599.25;;;7.55;60.44
30516;BME280;17297;54.022;10.760;2024-01-30T04:31:49;102605.69;;;7.52;60.43
30516;BME280;17297;54.022;10.760;2024-01-30T04:34:15;102612.16;;;7.50;60.25
30516;BME280;17297;54.022;10.760;2024-01-30T04:36:44;102608.78;;;7.48;60.34
30516;BME280;17297;54.022;10.760;2024-01-30T04:39:09;102614.97;;;7.48;60.46
30516;BME280;17297;54.022;10.760;2024-01-30T04:41:34;102613.25;;;7.47;60.53
30516;BME280;17297;54.022;10.760;2024-01-30T04:44:00;102621.44;;;7.46;60.49
30516;BME280;17297;54.022;10.760;2024-01-30T04:46:25;102620.59;;;7.45;60.39
30516;BME280;17297;54.022;10.760;2024-01-30T04:48:50;102619.75;;;7.45;60.34
30516;BME280;17297;54.022;10.760;2024-01-30T04:51:15;102624.09;;;7.46;60.57
30516;BME280;17297;54.022;10.760;2024-01-30T04:53:41;102625.81;;;7.47;60.59
30516;BME280;17297;54.022;10.760;2024-01-30T04:56:06;102612.41;;;7.47;60.47
30516;BME280;17297;54.022;10.760;2024-01-30T04:58:31;102610.72;;;7.46;60.48
30516;BME280;17297;54.022;10.760;2024-01-30T05:00:57;102615.94;;;7.47;60.46
30516;BME280;17297;54.022;10.760;2024-01-30T05:03:22;102609.03;;;7.45;60.62
30516;BME280;17297;54.022;10.760;2024-01-30T05:05:49;102608.28;;;7.43;60.55
30516;BME280;17297;54.022;10.760;2024-01-30T05:08:14;102608.53;;;7.39;60.40
30516;BME280;17297;54.022;10.760;2024-01-30T05:10:40;102605.13;;;7.37;60.53
30516;BME280;17297;54.022;10.760;2024-01-30T05:13:05;102605.38;;;7.34;60.45
30516;BME280;17297;54.022;10.760;2024-01-30T05:15:31;102598.34;;;7.33;60.40
30516;BME280;17297;54.022;10.760;2024-01-30T05:17:56;102589.72;;;7.30;60.62
30516;BME280;17297;54.022;10.760;2024-01-30T05:20:21;102581.81;;;7.28;60.44
30516;BME280;17297;54.022;10.760;2024-01-30T05:22:47;102583.78;;;7.26;60.46
30516;BME280;17297;54.022;10.760;2024-01-30T05:25:13;102584.03;;;7.23;60.36
30516;BME280;17297;54.022;10.760;2024-01-30T05:27:38;102581.59;;;7.20;60.59
30516;BME280;17297;54.022;10.760;2024-01-30T05:30:06;102587.06;;;7.18;60.60
30516;BME280;17297;54.022;10.760;2024-01-30T05:32:31;102581.00;;;7.16;60.44
30516;BME280;17297;54.022;10.760;2024-01-30T05:34:57;102581.84;;;7.17;60.64
30516;BME280;17297;54.022;10.760;2024-01-30T05:37:22;102579.28;;;7.15;60.59
30516;BME280;17297;54.022;10.760;2024-01-30T05:39:47;102579.28;;;7.15;60.64
30516;BME280;17297;54.022;10.760;2024-01-30T05:42:13;102572.09;;;7.16;60.82
30516;BME280;17297;54.022;10.760;2024-01-30T05:44:38;102567.63;;;7.16;60.77
30516;BME280;17297;54.022;10.760;2024-01-30T05:47:03;102572.00;;;7.17;60.57
30516;BME280;17297;54.022;10.760;2024-01-30T05:49:29;102569.31;;;7.17;60.79
30516;BME280;17297;54.022;10.760;2024-01-30T05:51:54;102570.16;;;7.18;60.61
30516;BME280;17297;54.022;10.760;2024-01-30T05:54:20;102571.16;;;7.17;60.84
30516;BME280;17297;54.022;10.760;2024-01-30T05:56:45;102571.16;;;7.17;60.89
30516;BME280;17297;54.022;10.760;2024-01-30T05:59:10;102572.97;;;7.16;60.88
30516;BME280;17297;54.022;10.760;2024-01-30T06:01:36;102565.78;;;7.17;60.75
30516;BME280;17297;54.022;10.760;2024-01-30T06:04:01;102576.59;;;7.15;60.75
30516;BME280;17297;54.022;10.760;2024-01-30T06:06:26;102571.25;;;7.15;60.90
30516;BME280;17297;54.022;10.760;2024-01-30T06:08:52;102569.56;;;7.14;60.88
30516;BME280;17297;54.022;10.760;2024-01-30T06:11:20;102567.75;;;7.15;60.78
30516;BME280;17297;54.022;10.760;2024-01-30T06:13:45;102558.13;;;7.12;60.94
30516;BME280;17297;54.022;10.760;2024-01-30T06:16:12;102567.16;;;7.11;60.92
30516;BME280;17297;54.022;10.760;2024-01-30T06:18:37;102563.63;;;7.11;60.98
30516;BME280;17297;54.022;10.760;2024-01-30T06:21:04;102560.94;;;7.11;60.86
30516;BME280;17297;54.022;10.760;2024-01-30T06:23:29;102563.63;;;7.11;61.06
30516;BME280;17297;54.022;10.760;2024-01-30T06:25:55;102564.56;;;7.10;60.91
30516;BME280;17297;54.022;10.760;2024-01-30T06:28:20;102565.44;;;7.10;61.09
30516;BME280;17297;54.022;10.760;2024-01-30T06:30:45;102560.94;;;7.11;61.11
30516;BME280;17297;54.022;10.760;2024-01-30T06:33:13;102565.44;;;7.10;61.17
30516;BME280;17297;54.022;10.760;2024-01-30T06:35:40;102565.31;;;7.12;61.30
30516;BME280;17297;54.022;10.760;2024-01-30T06:38:06;102564.47;;;7.11;61.08
30516;BME280;17297;54.022;10.760;2024-01-30T06:40:31;102555.44;;;7.12;61.02
30516;BME280;17297;54.022;10.760;2024-01-30T06:42:56;102556.28;;;7.13;61.03
30516;BME280;17297;54.022;10.760;2024-01-30T06:45:22;102562.38;;;7.15;61.20
30516;BME280;17297;54.022;10.760;2024-01-30T06:47:47;102557.16;;;7.13;61.22
30516;BME280;17297;54.022;10.760;2024-01-30T06:50:13;102552.66;;;7.14;61.20
30516;BME280;17297;54.022;10.760;2024-01-30T06:52:38;102557.16;;;7.13;61.24
30516;BME280;17297;54.022;10.760;2024-01-30T06:55:03;102559.72;;;7.15;61.25
30516;BME280;17297;54.022;10.760;2024-01-30T06:57:29;102557.03;;;7.15;61.29
30516;BME280;17297;54.022;10.760;2024-01-30T06:59:56;102554.25;;;7.16;61.36
30516;BME280;17297;54.022;10.760;2024-01-30T07:02:21;102547.06;;;7.17;61.32
30516;BME280;17297;54.022;10.760;2024-01-30T07:04:46;102553.25;;;7.17;61.37
30516;BME280;17297;54.022;10.760;2024-01-30T07:07:12;102555.78;;;7.19;61.26
30516;BME280;17297;54.022;10.760;2024-01-30T07:09:38;102553.00;;;7.21;61.49
30516;BME280;17297;54.022;10.760;2024-01-30T07:12:04;102550.19;;;7.22;61.30
30516;BME280;17297;54.022;10.760;2024-01-30T07:14:29;102548.25;;;7.24;61.40
30516;BME280;17297;54.022;10.760;2024-01-30T07:16:55;102556.03;;;7.27;61.44
30516;BME280;17297;54.022;10.760;2024-01-30T07:19:20;102549.56;;;7.30;61.40
30516;BME280;17297;54.022;10.760;2024-01-30T07:21:45;102553.81;;;7.32;61.61
30516;BME280;17297;54.022;10.760;2024-01-30T07:24:11;102552.84;;;7.33;61.35
30516;BME280;17297;54.022;10.760;2024-01-30T07:26:37;102550.00;;;7.35;61.66
30516;BME280;17297;54.022;10.760;2024-01-30T07:29:03;102544.41;;;7.38;61.66
30516;BME280;17297;54.022;10.760;2024-01-30T07:31:29;102547.97;;;7.38;61.55
30516;BME280;17297;54.022;10.760;2024-01-30T07:33:54;102538.78;;;7.41;61.66
30516;BME280;17297;54.022;10.760;2024-01-30T07:36:20;102539.66;;;7.42;61.67
30516;BME280;17297;54.022;10.760;2024-01-30T07:38:45;102540.50;;;7.42;61.64
30516;BME280;17297;54.022;10.760;2024-01-30T07:41:11;102545.72;;;7.44;61.77
30516;BME280;17297;54.022;10.760;2024-01-30T07:43:38;102541.09;;;7.46;61.69
30516;BME280;17297;54.022;10.760;2024-01-30T07:46:03;102542.53;;;7.50;61.66
30516;BME280;17297;54.022;10.760;2024-01-30T07:48:29;102543.97;;;7.54;61.72
30516;BME280;17297;54.022;10.760;2024-01-30T07:50:54;102540.06;;;7.58;61.96
30516;BME280;17297;54.022;10.760;2024-01-30T07:53:20;102535.28;;;7.61;61.91
30516;BME280;17297;54.022;10.760;2024-01-30T07:55:45;102530.53;;;7.65;61.84
30516;BME280;17297;54.022;10.760;2024-01-30T07:58:12;102527.47;;;7.70;62.13
30516;BME280;17297;54.022;10.760;2024-01-30T08:00:37;102528.75;;;7.75;62.08
30516;BME280;17297;54.022;10.760;2024-01-30T08:03:03;102532.47;;;7.84;61.90
30516;BME280;17297;54.022;10.760;2024-01-30T08:05:29;102530.97;;;7.91;62.15
30516;BME280;17297;54.022;10.760;2024-01-30T08:07:54;102534.00;;;7.98;62.15
30516;BME280;17297;54.022;10.760;2024-01-30T08:10:19;102538.66;;;8.05;62.00
30516;BME280;17297;54.022;10.760;2024-01-30T08:12:45;102530.25;;;8.10;61.97
30516;BME280;17297;54.022;10.760;2024-01-30T08:15:11;102534.34;;;8.14;62.08
30516;BME280;17297;54.022;10.760;2024-01-30T08:17:38;102533.34;;;8.15;61.92
30516;BME280;17297;54.022;10.760;2024-01-30T08:20:04;102528.84;;;8.16;61.80
30516;BME280;17297;54.022;10.760;2024-01-30T08:22:30;102531.41;;;8.17;61.98
30516;BME280;17297;54.022;10.760;2024-01-30T08:24:55;102536.75;;;8.17;62.02
30516;BME280;17297;54.022;10.760;2024-01-30T08:27:20;102535.06;;;8.16;61.73
30516;BME280;17297;54.022;10.760;2024-01-30T08:29:46;102527.88;;;8.17;62.00
30516;BME280;17297;54.022;10.760;2024-01-30T08:32:11;102518.00;;;8.17;61.95
30516;BME280;17297;54.022;10.760;2024-01-30T08:34:36;102525.19;;;8.17;62.13
30516;BME280;17297;54.022;10.760;2024-01-30T08:37:02;102520.69;;;8.17;62.04
30516;BME280;17297;54.022;10.760;2024-01-30T08:39:28;102521.53;;;8.18;62.00
30516;BME280;17297;54.022;10.760;2024-01-30T08:41:53;102516.16;;;8.18;62.17
30516;BME280;17297;54.022;10.760;2024-01-30T08:44:19;102517.84;;;8.19;62.18
30516;BME280;17297;54.022;10.760;2024-01-30T08:46:44;102517.72;;;8.20;62.15
30516;BME280;17297;54.022;10.760;2024-01-30T08:49:10;102512.38;;;8.20;62.36
30516;BME280;17297;54.022;10.760;2024-01-30T08:51:38;102513.94;;;8.23;62.09
30516;BME280;17297;54.022;10.760;2024-01-30T08:54:04;102505.75;;;8.24;62.32
30516;BME280;17297;54.022;10.760;2024-01-30T08:56:29;102505.63;;;8.26;62.36
30516;BME280;17297;54.022;10.760;2024-01-30T08:58:54;102509.00;;;8.28;62.37
30516;BME280;17297;54.022;10.760;2024-01-30T09:01:21;102503.50;;;8.29;62.35
30516;BME280;17297;54.022;10.760;2024-01-30T09:03:46;102498.00;;;8.31;62.47
30516;BME280;17297;54.022;10.760;2024-01-30T09:06:12;102494.09;;;8.35;62.34
30516;BME280;17297;54.022;10.760;2024-01-30T09:08:38;102496.63;;;8.37;62.39
30516;BME280;17297;54.022;10.760;2024-01-30T09:11:12;102498.22;;;8.39;62.44
30516;BME280;17297;54.022;10.760;2024-01-30T09:13:38;102498.78;;;8.43;62.33
30516;BME280;17297;54.022;10.760;2024-01-30T09:16:04;102491.47;;;8.45;62.40
30516;BME280;17297;54.022;10.760;2024-01-30T09:18:29;102486.66;;;8.48;62.52
30516;BME280;17297;54.022;10.760;2024-01-30T09:20:55;102478.19;;;8.53;62.64
30516;BME280;17297;54.022;10.760;2024-01-30T09:23:20;102482.31;;;8.57;62.55
30516;BME280;17297;54.022;10.760;2024-01-30T09:25:45;102486.41;;;8.61;62.73
30516;BME280;17297;54.022;10.760;2024-01-30T09:28:11;102483.31;;;8.66;62.58
30516;BME280;17297;54.022;10.760;2024-01-30T09:30:36;102474.97;;;8.69;62.78
30516;BME280;17297;54.022;10.760;2024-01-30T09:33:02;102482.63;;;8.73;62.73
30516;BME280;17297;54.022;10.760;2024-01-30T09:35:27;102474.16;;;8.78;62.89
30516;BME280;17297;54.022;10.760;2024-01-30T09:37:54;102470.06;;;8.84;62.96
30516;BME280;17297;54.022;10.760;2024-01-30T09:40:19;102464.28;;;8.88;62.77
30516;BME280;17297;54.022;10.760;2024-01-30T09:42:50;102452.28;;;8.92;62.80
30516;BME280;17297;54.022;10.760;2024-01-30T09:45:17;102448.19;;;8.98;62.97
30516;BME280;17297;54.022;10.760;2024-01-30T09:47:44;102457.38;;;9.05;63.04
30516;BME280;17297;54.022;10.760;2024-01-30T09:50:10;102447.06;;;9.10;62.98
30516;BME280;17297;54.022;10.760;2024-01-30T09:52:36;102449.31;;;9.15;63.07
30516;BME280;17297;54.022;10.760;2024-01-30T09:55:02;102448.63;;;9.22;62.88
30516;BME280;17297;54.022;10.760;2024-01-30T09:57:28;102449.16;;;9.26;63.03
30516;BME280;17297;54.022;10.760;2024-01-30T09:59:53;102452.25;;;9.31;62.91
30516;BME280;17297;54.022;10.760;2024-01-30T10:02:22;102463.44;;;9.36;62.86
30516;BME280;17297;54.022;10.760;2024-01-30T10:04:51;102463.00;;;9.41;63.15
30516;BME280;17297;54.022;10.760;2024-01-30T10:07:20;102466.94;;;9.46;62.95
30516;BME280;17297;54.022;10.760;2024-01-30T10:09:46;102460.16;;;9.52;63.01
30516;BME280;17297;54.022;10.760;2024-01-30T10:12:12;102466.78;;;9.58;63.03
30516;BME280;17297;54.022;10.760;2024-01-30T10:14:42;102454.63;;;9.63;63.23
30516;BME280;17297;54.022;10.760;2024-01-30T10:17:08;102469.31;;;9.69;63.03
30516;BME280;17297;54.022;10.760;2024-01-30T10:19:35;102467.03;;;9.74;63.30
30516;BME280;17297;54.022;10.760;2024-01-30T10:22:00;102460.22;;;9.80;63.20
30516;BME280;17297;54.022;10.760;2024-01-30T10:24:26;102460.66;;;9.85;63.22
30516;BME280;17297;54.022;10.760;2024-01-30T10:26:53;102461.03;;;9.90;63.43
30516;BME280;17297;54.022;10.760;2024-01-30T10:29:18;102466.81;;;9.95;63.07
30516;BME280;17297;54.022;10.760;2024-01-30T10:31:44;102453.81;;;10.00;63.34
30516;BME280;17297;54.022;10.760;2024-01-30T10:34:09;102454.34;;;10.04;63.11
30516;BME280;17297;54.022;10.760;2024-01-30T10:36:40;102449.50;;;10.07;63.24
30516;BME280;17297;54.022;10.760;2024-01-30T10:39:09;102444.69;;;10.11;63.22
30516;BME280;17297;54.022;10.760;2024-01-30T10:41:42;102443.53;;;10.13;63.05
30516;BME280;17297;54.022;10.760;2024-01-30T10:44:09;102450.47;;;10.16;63.31
30516;BME280;17297;54.022;10.760;2024-01-30T10:46:38;102451.84;;;10.20;63.33
30516;BME280;17297;54.022;10.760;2024-01-30T10:49:04;102460.63;;;10.22;63.13
30516;BME280;17297;54.022;10.760;2024-01-30T10:51:30;102457.66;;;10.25;63.17
30516;BME280;17297;54.022;10.760;2024-01-30T10:53:56;102456.50;;;10.28;62.95
30516;BME280;17297;54.022;10.760;2024-01-30T10:56:22;102447.31;;;10.30;63.29
30516;BME280;17297;54.022;10.760;2024-01-30T10:58:52;102442.47;;;10.34;63.08
30516;BME280;17297;54.022;10.760;2024-01-30T11:01:19;102447.53;;;10.37;63.10
30516;BME280;17297;54.022;10.760;2024-01-30T11:03:45;102432.94;;;10.39;63.22
30516;BME280;17297;54.022;10.760;2024-01-30T11:06:11;102439.03;;;10.42;63.36
30516;BME280;17297;54.022;10.760;2024-01-30T11:08:46;102433.34;;;10.45;63.09
30516;BME280;17297;54.022;10.760;2024-01-30T11:11:11;102435.75;;;10.48;63.16
30516;BME280;17297;54.022;10.760;2024-01-30T11:13:37;102430.06;;;10.51;63.21
30516;BME280;17297;54.022;10.760;2024-01-30T11:16:04;102425.53;;;10.51;63.17
30516;BME280;17297;54.022;10.760;2024-01-30T11:18:31;102420.84;;;10.53;63.06
30516;BME280;17297;54.022;10.760;2024-01-30T11:20:57;102419.84;;;10.54;63.22
30516;BME280;17297;54.022;10.760;2024-01-30T11:23:23;102403.53;;;10.56;63.22
30516;BME280;17297;54.022;10.760;2024-01-30T11:25:49;102397.84;;;10.59;63.07
30516;BME280;17297;54.022;10.760;2024-01-30T11:28:15;102395.84;;;10.61;63.16
30516;BME280;17297;54.022;10.760;2024-01-30T11:30:44;102396.69;;;10.61;63.10
30516;BME280;17297;54.022;10.760;2024-01-30T11:33:13;102388.47;;;10.63;63.18
30516;BME280;17297;54.022;10.760;2024-01-30T11:35:41;102388.31;;;10.64;63.33
30516;BME280;17297;54.022;10.760;2024-01-30T11:38:08;102391.53;;;10.68;63.20
30516;BME280;17297;54.022;10.760;2024-01-30T11:40:36;102385.00;;;10.71;63.19
30516;BME280;17297;54.022;10.760;2024-01-30T11:43:04;102390.25;;;10.72;63.27
30516;BME280;17297;54.022;10.760;2024-01-30T11:45:31;102386.41;;;10.75;63.12
30516;BME280;17297;54.022;10.760;2024-01-30T11:47:57;102384.38;;;10.77;63.21
30516;BME280;17297;54.022;10.760;2024-01-30T11:50:23;102384.91;;;10.80;63.21
30516;BME280;17297;54.022;10.760;2024-01-30T11:52:50;102385.63;;;10.82;63.10
30516;BME280;17297;54.022;10.760;2024-01-30T11:55:15;102380.06;;;10.84;63.09
30516;BME280;17297;54.022;10.760;2024-01-30T11:57:41;102370.84;;;10.86;63.23
30516;BME280;17297;54.022;10.760;2024-01-30T12:00:14;102363.47;;;10.89;63.17
30516;BME280;17297;54.022;10.760;2024-01-30T12:02:40;102365.16;;;10.90;63.21
30516;BME280;17297;54.022;10.760;2024-01-30T12:05:06;102369.56;;;10.91;63.01
30516;BME280;17297;54.022;10.760;2024-01-30T12:07:36;102375.78;;;10.91;63.04
30516;BME280;17297;54.022;10.760;2024-01-30T12:10:01;102356.94;;;10.91;63.07
30516;BME280;17297;54.022;10.760;2024-01-30T12:12:28;102363.16;;;10.92;63.12
30516;BME280;17297;54.022;10.760;2024-01-30T12:14:54;102361.31;;;10.92;63.02
30516;BME280;17297;54.022;10.760;2024-01-30T12:17:27;102362.13;;;10.93;63.16
30516;BME280;17297;54.022;10.760;2024-01-30T12:20:02;102357.59;;;10.93;63.11
30516;BME280;17297;54.022;10.760;2024-01-30T12:22:28;102361.16;;;10.94;62.98
30516;BME280;17297;54.022;10.760;2024-01-30T12:24:53;102348.53;;;10.94;63.07
30516;BME280;17297;54.022;10.760;2024-01-30T12:27:19;102353.94;;;10.94;63.06
30516;BME280;17297;54.022;10.760;2024-01-30T12:29:44;102356.44;;;10.96;63.04
30516;BME280;17297;54.022;10.760;2024-01-30T12:32:15;102355.59;;;10.95;63.16
30516;BME280;17297;54.022;10.760;2024-01-30T12:34:41;102349.22;;;10.96;62.99
30516;BME280;17297;54.022;10.760;2024-01-30T12:37:08;102349.22;;;10.96;63.21
30516;BME280;17297;54.022;10.760;2024-01-30T12:39:35;102348.22;;;10.97;63.11
30516;BME280;17297;54.022;10.760;2024-01-30T12:42:04;102327.53;;;10.98;63.19